Currently 51°F in Riverside (Presidential Park), California, USA
51°F
55°F / 50°F
2 mph SE
0.00"
Thursday, March 23, 2017 5:19 AM PDT

Riverside (Presidential Park), California Weather Summary
Last 36 Hours

Temperature Winds Hourly Humidity Dewpoint
Time Report Norm Report Norm Max Gusts Precip. Rpt. Norm Rpt. Norm Pressure
1Thu 05:19 AM  51.1°F  53°F  2 mph SE  1 mph  4 mph  0.00"  85%  82%  47°F  48°F  29.99"
Thu 05:00 AM  50.1°F  54°F  calm  1 mph  4 mph  0.00"  85%  81%  46°F  48°F  29.98"
3Thu 04:43 AM  49.8°F  54°F  calm  1 mph  3 mph  ----  85%  81%  45°F  48°F  29.98"
Thu 04:00 AM  50.4°F  54°F  calm  1 mph  6 mph  0.00"  85%  80%  46°F  48°F  29.98"
Thu 03:00 AM  51.9°F  55°F  2 mph E  1 mph  5 mph  0.00"  84%  79%  47°F  48°F  29.98"
Thu 02:00 AM  53.8°F  56°F  2 mph E  1 mph  7 mph  0.00"  81%  77%  48°F  49°F  29.98"
Thu 01:00 AM  55.0°F  57°F  3 mph W  1 mph  5 mph  0.00"  82%  75%  49°F  49°F  29.98"
2Thu 12:56 AM  55.1°F  57°F  calm  1 mph  5 mph  ----  82%  75%  50°F  49°F  29.98"
Thu 12:00 AM  54.9°F  58°F  1 mph E  1 mph  4 mph  0.00"  79%  73%  48°F  49°F  29.98"
Wed 11:00 PM  56.3°F  60°F  1 mph SE  2 mph  12 mph  0.00"  75%  70%  48°F  50°F  29.98"
Wed 10:00 PM  57.6°F  61°F  5 mph SW  2 mph  18 mph  0.00"  74%  66%  49°F  50°F  29.98"
Wed 09:00 PM  58.2°F  64°F  6 mph SW  3 mph  16 mph  0.00"  70%  61%  48°F  50°F  29.98"
Wed 08:00 PM  58.4°F  66°F  5 mph SW  3 mph  18 mph  0.00"  70%  56%  48°F  49°F  29.96"
Wed 07:00 PM  60.0°F  69°F  6 mph SW  5 mph  21 mph  0.00"  67%  50%  48°F  49°F  29.94"
Wed 06:00 PM  63.3°F  72°F  10 mph SW  7 mph  25 mph  0.00"  55%  43%  46°F  48°F  29.92"
Wed 05:00 PM  66.0°F  75°F  12 mph SW  8 mph  21 mph  0.00"  51%  38%  47°F  47°F  29.91"
Wed 04:00 PM  67.0°F  76°F  11 mph SW  7 mph  18 mph  0.00"  50%  36%  47°F  46°F  29.92"
Wed 03:00 PM  66.1°F  75°F  6 mph SW  6 mph  18 mph  0.00"  54%  37%  48°F  46°F  29.93"
Wed 02:00 PM  65.2°F  75°F  8 mph SW  5 mph  15 mph  0.00"  62%  38%  51°F  46°F  29.98"
Wed 01:00 PM  64.1°F  73°F  6 mph SW  5 mph  15 mph  0.00"  61%  41%  50°F  47°F  29.99"
Wed 12:00 PM  63.9°F  70°F  5 mph W  3 mph  12 mph  0.00"  68%  47%  53°F  49°F  30.00"
Wed 11:00 AM  61.0°F  67°F  3 mph W  3 mph  9 mph  0.00"  81%  55%  55°F  49°F  30.02"
Wed 10:00 AM  58.4°F  63°F  3 mph W  2 mph  7 mph  0.00"  91%  63%  56°F  50°F  30.02"
Wed 09:00 AM  58.2°F  58°F  calm  2 mph  8 mph  0.00"  96%  74%  57°F  49°F  30.02"
Wed 08:00 AM  57.5°F  54°F  calm  1 mph  3 mph  0.03"  96%  80%  56°F  48°F  30.01"
Wed 07:00 AM  57.7°F  53°F  calm  1 mph  none  0.00"  96%  80%  57°F  47°F  30.01"
Wed 06:00 AM  57.5°F  53°F  calm  1 mph  none  0.00"  96%  80%  56°F  47°F  30.00"
Wed 05:00 AM  57.5°F  54°F  calm  1 mph  5 mph  0.00"  96%  80%  56°F  47°F  29.99"
Wed 04:00 AM  57.4°F  54°F  calm  1 mph  4 mph  0.01"  96%  79%  56°F  48°F  29.99"
Wed 03:00 AM  57.6°F  55°F  calm  1 mph  3 mph  0.01"  96%  78%  56°F  48°F  30.01"
Wed 02:00 AM  57.4°F  56°F  1 mph W  1 mph  5 mph  0.01"  96%  76%  56°F  48°F  30.03"
Wed 01:00 AM  57.4°F  57°F  3 mph NW  1 mph  5 mph  0.02"  96%  74%  56°F  48°F  30.03"
Wed 12:00 AM  57.7°F  59°F  3 mph NW  1 mph  6 mph  0.01"  96%  71%  56°F  49°F  30.03"
Tue 11:00 PM  57.9°F  60°F  2 mph W  2 mph  6 mph  0.03"  95%  68%  57°F  49°F  30.04"
Tue 10:00 PM  58.4°F  62°F  3 mph W  2 mph  8 mph  0.03"  95%  64%  57°F  49°F  30.05"
Tue 09:00 PM  58.3°F  64°F  3 mph W  3 mph  7 mph  0.01"  94%  59%  57°F  49°F  30.05"
Tue 08:00 PM  58.8°F  67°F  5 mph W  3 mph  7 mph  0.00"  92%  53%  56°F  49°F  30.04"
Tue 07:00 PM  59.2°F  70°F  3 mph W  5 mph  8 mph  0.00"  91%  47%  56°F  48°F  30.04"
Tue 06:00 PM  60.2°F  73°F  5 mph NW  7 mph  14 mph  0.01"  91%  40%  57°F  47°F  30.05"

  1. Current weather data. No green row appears if the current weather data is also the high or low for the current day.
  2. High temperature for the current day.
  3. Low temperature for the current day.

The Riverside (Presidential Park), California weather pages are a service of WeatherCurrents.
Copyright ©Thu Mar 23 05:19:48 PDT 2017  WeatherCurrents. All rights reserved. - Submit questions and comments - Privacy Policy

This page automatically refreshes every 10 minutes.